sensor_id;sensor_type;location;lat;lon;timestamp;P1;durP1;ratioP1;P2;durP2;ratioP2
61085;SDS011;46967;48.876;2.136;2022-12-24T00:01:11;25.10;;;4.03;;
61085;SDS011;46967;48.876;2.136;2022-12-24T00:03:36;22.25;;;3.63;;
61085;SDS011;46967;48.876;2.136;2022-12-24T00:06:03;22.98;;;4.50;;
61085;SDS011;46967;48.876;2.136;2022-12-24T00:08:30;24.98;;;4.13;;
61085;SDS011;46967;48.876;2.136;2022-12-24T00:10:55;28.83;;;3.83;;
61085;SDS011;46967;48.876;2.136;2022-12-24T00:13:20;27.17;;;3.97;;
61085;SDS011;46967;48.876;2.136;2022-12-24T00:15:46;22.20;;;3.50;;
61085;SDS011;46967;48.876;2.136;2022-12-24T00:18:12;33.92;;;4.72;;
61085;SDS011;46967;48.876;2.136;2022-12-24T00:20:37;24.80;;;4.30;;
61085;SDS011;46967;48.876;2.136;2022-12-24T00:23:03;21.60;;;3.42;;
61085;SDS011;46967;48.876;2.136;2022-12-24T00:25:28;26.33;;;4.78;;
61085;SDS011;46967;48.876;2.136;2022-12-24T00:27:53;25.98;;;4.05;;
61085;SDS011;46967;48.876;2.136;2022-12-24T00:30:19;29.17;;;4.63;;
61085;SDS011;46967;48.876;2.136;2022-12-24T00:32:44;25.92;;;4.18;;
61085;SDS011;46967;48.876;2.136;2022-12-24T00:35:09;26.90;;;3.70;;
61085;SDS011;46967;48.876;2.136;2022-12-24T00:37:35;31.20;;;4.13;;
61085;SDS011;46967;48.876;2.136;2022-12-24T00:40:00;24.02;;;3.83;;
61085;SDS011;46967;48.876;2.136;2022-12-24T00:42:25;20.83;;;4.35;;
61085;SDS011;46967;48.876;2.136;2022-12-24T00:44:51;29.40;;;5.18;;
61085;SDS011;46967;48.876;2.136;2022-12-24T00:47:16;26.55;;;4.13;;
61085;SDS011;46967;48.876;2.136;2022-12-24T00:49:41;23.92;;;4.78;;
61085;SDS011;46967;48.876;2.136;2022-12-24T00:52:07;28.02;;;3.75;;
61085;SDS011;46967;48.876;2.136;2022-12-24T00:54:32;22.23;;;4.00;;
61085;SDS011;46967;48.876;2.136;2022-12-24T00:56:57;26.08;;;3.80;;
61085;SDS011;46967;48.876;2.136;2022-12-24T00:59:23;30.95;;;3.85;;
61085;SDS011;46967;48.876;2.136;2022-12-24T01:01:48;24.20;;;3.40;;
61085;SDS011;46967;48.876;2.136;2022-12-24T01:04:13;31.38;;;5.07;;
61085;SDS011;46967;48.876;2.136;2022-12-24T01:06:57;29.80;;;3.80;;
61085;SDS011;46967;48.876;2.136;2022-12-24T01:09:22;22.48;;;4.70;;
61085;SDS011;46967;48.876;2.136;2022-12-24T01:11:48;32.25;;;4.25;;
61085;SDS011;46967;48.876;2.136;2022-12-24T01:14:13;31.05;;;4.00;;
61085;SDS011;46967;48.876;2.136;2022-12-24T01:16:38;31.27;;;4.50;;
61085;SDS011;46967;48.876;2.136;2022-12-24T01:19:04;27.65;;;5.22;;
61085;SDS011;46967;48.876;2.136;2022-12-24T01:21:29;27.67;;;4.22;;
61085;SDS011;46967;48.876;2.136;2022-12-24T01:23:54;28.70;;;4.00;;
61085;SDS011;46967;48.876;2.136;2022-12-24T01:26:20;28.40;;;3.88;;
61085;SDS011;46967;48.876;2.136;2022-12-24T01:28:45;24.13;;;4.55;;
61085;SDS011;46967;48.876;2.136;2022-12-24T01:31:15;31.75;;;4.18;;
61085;SDS011;46967;48.876;2.136;2022-12-24T01:33:42;29.95;;;4.78;;
61085;SDS011;46967;48.876;2.136;2022-12-24T01:36:08;28.58;;;4.47;;
61085;SDS011;46967;48.876;2.136;2022-12-24T01:38:33;24.45;;;3.95;;
61085;SDS011;46967;48.876;2.136;2022-12-24T01:40:59;28.20;;;4.57;;
61085;SDS011;46967;48.876;2.136;2022-12-24T01:43:43;26.17;;;5.00;;
61085;SDS011;46967;48.876;2.136;2022-12-24T01:46:19;29.50;;;5.35;;
61085;SDS011;46967;48.876;2.136;2022-12-24T01:48:51;30.80;;;5.30;;
61085;SDS011;46967;48.876;2.136;2022-12-24T01:54:01;24.17;;;5.07;;
61085;SDS011;46967;48.876;2.136;2022-12-24T01:56:30;31.77;;;5.00;;
61085;SDS011;46967;48.876;2.136;2022-12-24T01:58:58;36.13;;;5.57;;
61085;SDS011;46967;48.876;2.136;2022-12-24T02:03:52;28.55;;;4.25;;
61085;SDS011;46967;48.876;2.136;2022-12-24T02:06:17;23.02;;;3.78;;
61085;SDS011;46967;48.876;2.136;2022-12-24T02:08:44;25.40;;;4.90;;
61085;SDS011;46967;48.876;2.136;2022-12-24T02:11:12;33.20;;;4.75;;
61085;SDS011;46967;48.876;2.136;2022-12-24T02:13:39;25.92;;;4.05;;
61085;SDS011;46967;48.876;2.136;2022-12-24T02:16:18;23.23;;;3.88;;
61085;SDS011;46967;48.876;2.136;2022-12-24T02:18:57;26.85;;;4.65;;
61085;SDS011;46967;48.876;2.136;2022-12-24T02:21:39;25.27;;;4.63;;
61085;SDS011;46967;48.876;2.136;2022-12-24T02:32:10;36.85;;;4.97;;
61085;SDS011;46967;48.876;2.136;2022-12-24T02:34:46;31.48;;;4.70;;
61085;SDS011;46967;48.876;2.136;2022-12-24T02:37:21;26.33;;;4.90;;
61085;SDS011;46967;48.876;2.136;2022-12-24T02:42:26;34.72;;;4.55;;
61085;SDS011;46967;48.876;2.136;2022-12-24T02:45:10;21.23;;;4.45;;
61085;SDS011;46967;48.876;2.136;2022-12-24T02:47:38;30.75;;;4.60;;
61085;SDS011;46967;48.876;2.136;2022-12-24T02:50:06;34.92;;;4.95;;
61085;SDS011;46967;48.876;2.136;2022-12-24T02:52:38;23.67;;;4.07;;
61085;SDS011;46967;48.876;2.136;2022-12-24T03:00:18;38.38;;;5.50;;
61085;SDS011;46967;48.876;2.136;2022-12-24T03:05:17;25.20;;;4.32;;
61085;SDS011;46967;48.876;2.136;2022-12-24T03:08:01;28.30;;;5.05;;
61085;SDS011;46967;48.876;2.136;2022-12-24T03:13:15;26.77;;;4.35;;
61085;SDS011;46967;48.876;2.136;2022-12-24T03:15:41;30.63;;;4.35;;
61085;SDS011;46967;48.876;2.136;2022-12-24T03:18:09;28.73;;;5.22;;
61085;SDS011;46967;48.876;2.136;2022-12-24T03:20:37;21.38;;;3.83;;
61085;SDS011;46967;48.876;2.136;2022-12-24T03:23:05;36.20;;;5.00;;
61085;SDS011;46967;48.876;2.136;2022-12-24T03:25:31;18.75;;;3.72;;
61085;SDS011;46967;48.876;2.136;2022-12-24T03:27:59;28.15;;;3.90;;
61085;SDS011;46967;48.876;2.136;2022-12-24T03:30:27;36.10;;;5.28;;
61085;SDS011;46967;48.876;2.136;2022-12-24T03:32:53;34.80;;;5.40;;
61085;SDS011;46967;48.876;2.136;2022-12-24T03:35:18;20.10;;;3.80;;
61085;SDS011;46967;48.876;2.136;2022-12-24T03:37:44;30.63;;;3.88;;
61085;SDS011;46967;48.876;2.136;2022-12-24T03:40:09;27.10;;;4.13;;
61085;SDS011;46967;48.876;2.136;2022-12-24T03:42:35;35.45;;;5.53;;
61085;SDS011;46967;48.876;2.136;2022-12-24T03:45:00;31.15;;;4.78;;
61085;SDS011;46967;48.876;2.136;2022-12-24T03:47:26;24.25;;;3.60;;
61085;SDS011;46967;48.876;2.136;2022-12-24T03:49:51;21.77;;;4.55;;
61085;SDS011;46967;48.876;2.136;2022-12-24T03:52:16;26.42;;;3.42;;
61085;SDS011;46967;48.876;2.136;2022-12-24T03:54:42;23.30;;;3.85;;
61085;SDS011;46967;48.876;2.136;2022-12-24T03:57:07;20.40;;;4.15;;
61085;SDS011;46967;48.876;2.136;2022-12-24T03:59:33;27.60;;;4.13;;
61085;SDS011;46967;48.876;2.136;2022-12-24T04:01:58;31.83;;;4.32;;
61085;SDS011;46967;48.876;2.136;2022-12-24T04:04:23;25.50;;;4.10;;
61085;SDS011;46967;48.876;2.136;2022-12-24T04:06:49;32.92;;;4.65;;
61085;SDS011;46967;48.876;2.136;2022-12-24T04:09:14;27.77;;;3.85;;
61085;SDS011;46967;48.876;2.136;2022-12-24T04:11:40;18.83;;;4.45;;
61085;SDS011;46967;48.876;2.136;2022-12-24T04:14:05;35.83;;;5.20;;
61085;SDS011;46967;48.876;2.136;2022-12-24T04:16:30;32.03;;;4.57;;
61085;SDS011;46967;48.876;2.136;2022-12-24T04:18:56;29.88;;;4.60;;
61085;SDS011;46967;48.876;2.136;2022-12-24T04:21:21;31.55;;;5.07;;
61085;SDS011;46967;48.876;2.136;2022-12-24T04:23:46;24.35;;;4.45;;
61085;SDS011;46967;48.876;2.136;2022-12-24T04:26:12;22.50;;;4.10;;
61085;SDS011;46967;48.876;2.136;2022-12-24T04:28:38;24.90;;;5.10;;
61085;SDS011;46967;48.876;2.136;2022-12-24T04:31:06;27.17;;;3.78;;
61085;SDS011;46967;48.876;2.136;2022-12-24T04:33:33;33.13;;;6.18;;
61085;SDS011;46967;48.876;2.136;2022-12-24T04:35:59;32.50;;;4.80;;
61085;SDS011;46967;48.876;2.136;2022-12-24T04:38:27;24.90;;;4.25;;
61085;SDS011;46967;48.876;2.136;2022-12-24T04:40:59;38.40;;;5.03;;
61085;SDS011;46967;48.876;2.136;2022-12-24T04:43:29;30.05;;;4.50;;
61085;SDS011;46967;48.876;2.136;2022-12-24T04:45:55;26.52;;;4.28;;
61085;SDS011;46967;48.876;2.136;2022-12-24T04:48:21;28.85;;;4.40;;
61085;SDS011;46967;48.876;2.136;2022-12-24T04:50:46;24.80;;;4.43;;
61085;SDS011;46967;48.876;2.136;2022-12-24T04:53:12;25.17;;;4.35;;
61085;SDS011;46967;48.876;2.136;2022-12-24T04:55:42;27.38;;;4.75;;
61085;SDS011;46967;48.876;2.136;2022-12-24T05:00:34;27.98;;;3.42;;
61085;SDS011;46967;48.876;2.136;2022-12-24T05:02:59;25.33;;;3.47;;
61085;SDS011;46967;48.876;2.136;2022-12-24T05:05:24;27.05;;;4.00;;
61085;SDS011;46967;48.876;2.136;2022-12-24T05:07:49;27.58;;;4.07;;
61085;SDS011;46967;48.876;2.136;2022-12-24T05:10:15;24.08;;;3.92;;
61085;SDS011;46967;48.876;2.136;2022-12-24T05:12:40;28.83;;;4.50;;
61085;SDS011;46967;48.876;2.136;2022-12-24T05:15:06;23.27;;;3.80;;
61085;SDS011;46967;48.876;2.136;2022-12-24T05:17:31;23.75;;;4.25;;
61085;SDS011;46967;48.876;2.136;2022-12-24T05:19:56;37.20;;;3.97;;
61085;SDS011;46967;48.876;2.136;2022-12-24T05:22:22;28.20;;;4.18;;
61085;SDS011;46967;48.876;2.136;2022-12-24T05:25:06;29.20;;;4.55;;
61085;SDS011;46967;48.876;2.136;2022-12-24T05:27:52;24.35;;;3.95;;
61085;SDS011;46967;48.876;2.136;2022-12-24T05:30:18;23.48;;;4.00;;
61085;SDS011;46967;48.876;2.136;2022-12-24T05:32:44;33.95;;;4.90;;
61085;SDS011;46967;48.876;2.136;2022-12-24T05:35:09;31.88;;;4.30;;
61085;SDS011;46967;48.876;2.136;2022-12-24T05:37:35;33.35;;;5.38;;
61085;SDS011;46967;48.876;2.136;2022-12-24T05:40:00;29.63;;;4.57;;
61085;SDS011;46967;48.876;2.136;2022-12-24T05:42:25;25.60;;;3.92;;
61085;SDS011;46967;48.876;2.136;2022-12-24T05:44:51;25.90;;;4.50;;
61085;SDS011;46967;48.876;2.136;2022-12-24T05:47:16;30.08;;;5.28;;
61085;SDS011;46967;48.876;2.136;2022-12-24T05:49:41;35.00;;;5.38;;
61085;SDS011;46967;48.876;2.136;2022-12-24T05:52:07;26.65;;;4.50;;
61085;SDS011;46967;48.876;2.136;2022-12-24T05:54:32;31.83;;;5.03;;
61085;SDS011;46967;48.876;2.136;2022-12-24T05:56:57;32.35;;;4.30;;
61085;SDS011;46967;48.876;2.136;2022-12-24T05:59:23;41.95;;;5.60;;
61085;SDS011;46967;48.876;2.136;2022-12-24T06:01:48;31.02;;;4.82;;
61085;SDS011;46967;48.876;2.136;2022-12-24T06:04:13;33.65;;;4.78;;
61085;SDS011;46967;48.876;2.136;2022-12-24T06:06:39;29.67;;;4.60;;
61085;SDS011;46967;48.876;2.136;2022-12-24T06:09:04;34.72;;;5.03;;
61085;SDS011;46967;48.876;2.136;2022-12-24T06:11:29;27.75;;;5.18;;
61085;SDS011;46967;48.876;2.136;2022-12-24T06:13:55;28.23;;;4.65;;
61085;SDS011;46967;48.876;2.136;2022-12-24T06:16:21;29.95;;;4.53;;
61085;SDS011;46967;48.876;2.136;2022-12-24T06:18:47;28.33;;;4.10;;
61085;SDS011;46967;48.876;2.136;2022-12-24T06:21:13;29.45;;;4.72;;
61085;SDS011;46967;48.876;2.136;2022-12-24T06:23:40;29.05;;;4.40;;
61085;SDS011;46967;48.876;2.136;2022-12-24T06:26:07;28.75;;;4.43;;
61085;SDS011;46967;48.876;2.136;2022-12-24T06:28:34;29.35;;;4.28;;
61085;SDS011;46967;48.876;2.136;2022-12-24T06:31:01;22.60;;;3.65;;
61085;SDS011;46967;48.876;2.136;2022-12-24T06:33:28;32.42;;;4.25;;
61085;SDS011;46967;48.876;2.136;2022-12-24T06:35:54;39.25;;;6.72;;
61085;SDS011;46967;48.876;2.136;2022-12-24T06:38:19;29.20;;;4.63;;
61085;SDS011;46967;48.876;2.136;2022-12-24T06:40:45;24.13;;;4.35;;
61085;SDS011;46967;48.876;2.136;2022-12-24T06:43:11;18.42;;;3.70;;
61085;SDS011;46967;48.876;2.136;2022-12-24T06:45:37;17.85;;;3.50;;
61085;SDS011;46967;48.876;2.136;2022-12-24T06:48:03;28.10;;;4.32;;
61085;SDS011;46967;48.876;2.136;2022-12-24T06:50:31;27.27;;;4.13;;
61085;SDS011;46967;48.876;2.136;2022-12-24T06:52:58;18.15;;;2.70;;
61085;SDS011;46967;48.876;2.136;2022-12-24T06:55:24;21.70;;;3.15;;
61085;SDS011;46967;48.876;2.136;2022-12-24T06:57:49;21.00;;;3.75;;
61085;SDS011;46967;48.876;2.136;2022-12-24T07:00:15;20.52;;;3.08;;
61085;SDS011;46967;48.876;2.136;2022-12-24T07:02:41;13.55;;;2.58;;
61085;SDS011;46967;48.876;2.136;2022-12-24T07:05:08;16.17;;;2.50;;
61085;SDS011;46967;48.876;2.136;2022-12-24T07:07:36;12.60;;;2.40;;
61085;SDS011;46967;48.876;2.136;2022-12-24T07:10:02;23.90;;;2.78;;
61085;SDS011;46967;48.876;2.136;2022-12-24T07:12:28;17.27;;;3.15;;
61085;SDS011;46967;48.876;2.136;2022-12-24T07:14:53;23.05;;;3.25;;
61085;SDS011;46967;48.876;2.136;2022-12-24T07:17:19;15.93;;;2.95;;
61085;SDS011;46967;48.876;2.136;2022-12-24T07:19:44;22.98;;;3.17;;
61085;SDS011;46967;48.876;2.136;2022-12-24T07:22:09;18.55;;;2.85;;
61085;SDS011;46967;48.876;2.136;2022-12-24T07:24:35;22.42;;;3.50;;
61085;SDS011;46967;48.876;2.136;2022-12-24T07:27:01;14.25;;;3.33;;
61085;SDS011;46967;48.876;2.136;2022-12-24T07:29:26;18.67;;;2.92;;
61085;SDS011;46967;48.876;2.136;2022-12-24T07:31:52;19.00;;;3.40;;
61085;SDS011;46967;48.876;2.136;2022-12-24T07:34:17;14.10;;;2.30;;
61085;SDS011;46967;48.876;2.136;2022-12-24T07:36:42;16.08;;;2.65;;
61085;SDS011;46967;48.876;2.136;2022-12-24T07:39:08;11.23;;;2.05;;
61085;SDS011;46967;48.876;2.136;2022-12-24T07:41:33;19.20;;;2.25;;
61085;SDS011;46967;48.876;2.136;2022-12-24T07:43:58;18.33;;;2.63;;
61085;SDS011;46967;48.876;2.136;2022-12-24T07:46:24;15.52;;;2.20;;
61085;SDS011;46967;48.876;2.136;2022-12-24T07:48:49;16.05;;;2.80;;
61085;SDS011;46967;48.876;2.136;2022-12-24T07:51:14;17.55;;;2.45;;
61085;SDS011;46967;48.876;2.136;2022-12-24T07:53:40;19.70;;;2.85;;
61085;SDS011;46967;48.876;2.136;2022-12-24T07:56:11;18.20;;;2.50;;
61085;SDS011;46967;48.876;2.136;2022-12-24T07:58:37;13.57;;;2.00;;
61085;SDS011;46967;48.876;2.136;2022-12-24T08:01:03;15.23;;;1.83;;
61085;SDS011;46967;48.876;2.136;2022-12-24T08:03:28;17.02;;;3.20;;
61085;SDS011;46967;48.876;2.136;2022-12-24T08:05:53;18.60;;;2.25;;
61085;SDS011;46967;48.876;2.136;2022-12-24T08:08:19;13.43;;;1.70;;
61085;SDS011;46967;48.876;2.136;2022-12-24T08:10:45;21.80;;;2.45;;
61085;SDS011;46967;48.876;2.136;2022-12-24T08:13:11;17.48;;;2.53;;
61085;SDS011;46967;48.876;2.136;2022-12-24T08:15:37;13.05;;;2.00;;
61085;SDS011;46967;48.876;2.136;2022-12-24T08:18:03;14.13;;;2.13;;
61085;SDS011;46967;48.876;2.136;2022-12-24T08:20:28;14.40;;;1.83;;
61085;SDS011;46967;48.876;2.136;2022-12-24T08:22:53;15.10;;;2.35;;
61085;SDS011;46967;48.876;2.136;2022-12-24T08:25:19;15.95;;;2.65;;
61085;SDS011;46967;48.876;2.136;2022-12-24T08:27:45;12.50;;;3.28;;
61085;SDS011;46967;48.876;2.136;2022-12-24T08:30:11;15.38;;;2.95;;
61085;SDS011;46967;48.876;2.136;2022-12-24T08:32:37;14.35;;;2.13;;
61085;SDS011;46967;48.876;2.136;2022-12-24T08:35:02;13.07;;;2.30;;
61085;SDS011;46967;48.876;2.136;2022-12-24T08:37:28;14.30;;;2.70;;
61085;SDS011;46967;48.876;2.136;2022-12-24T08:39:53;12.98;;;2.83;;
61085;SDS011;46967;48.876;2.136;2022-12-24T08:42:19;18.50;;;2.10;;
61085;SDS011;46967;48.876;2.136;2022-12-24T08:44:44;20.70;;;2.30;;
61085;SDS011;46967;48.876;2.136;2022-12-24T08:47:09;14.38;;;1.95;;
61085;SDS011;46967;48.876;2.136;2022-12-24T08:49:35;12.20;;;1.80;;
61085;SDS011;46967;48.876;2.136;2022-12-24T08:52:00;17.90;;;2.67;;
61085;SDS011;46967;48.876;2.136;2022-12-24T08:54:25;14.75;;;2.22;;
61085;SDS011;46967;48.876;2.136;2022-12-24T08:56:51;20.88;;;2.20;;
61085;SDS011;46967;48.876;2.136;2022-12-24T08:59:16;19.55;;;2.20;;
61085;SDS011;46967;48.876;2.136;2022-12-24T09:01:42;18.00;;;2.72;;
61085;SDS011;46967;48.876;2.136;2022-12-24T09:04:07;16.75;;;2.67;;
61085;SDS011;46967;48.876;2.136;2022-12-24T09:06:33;13.80;;;2.00;;
61085;SDS011;46967;48.876;2.136;2022-12-24T09:08:59;24.05;;;2.78;;
61085;SDS011;46967;48.876;2.136;2022-12-24T09:11:25;15.73;;;2.63;;
61085;SDS011;46967;48.876;2.136;2022-12-24T09:13:50;15.38;;;2.47;;
61085;SDS011;46967;48.876;2.136;2022-12-24T09:16:16;15.65;;;2.90;;
61085;SDS011;46967;48.876;2.136;2022-12-24T09:18:41;14.75;;;2.58;;
61085;SDS011;46967;48.876;2.136;2022-12-24T09:21:08;12.70;;;1.67;;
61085;SDS011;46967;48.876;2.136;2022-12-24T09:23:36;14.65;;;1.80;;
61085;SDS011;46967;48.876;2.136;2022-12-24T09:28:50;8.70;;;1.58;;
61085;SDS011;46967;48.876;2.136;2022-12-24T09:31:15;16.73;;;2.22;;
61085;SDS011;46967;48.876;2.136;2022-12-24T09:33:41;15.45;;;2.47;;
61085;SDS011;46967;48.876;2.136;2022-12-24T09:36:08;12.20;;;2.42;;
61085;SDS011;46967;48.876;2.136;2022-12-24T09:38:35;16.30;;;1.75;;
61085;SDS011;46967;48.876;2.136;2022-12-24T09:41:09;11.27;;;1.63;;
61085;SDS011;46967;48.876;2.136;2022-12-24T09:43:48;12.38;;;2.38;;
61085;SDS011;46967;48.876;2.136;2022-12-24T09:46:33;13.45;;;2.33;;
61085;SDS011;46967;48.876;2.136;2022-12-24T09:49:02;12.90;;;2.65;;
61085;SDS011;46967;48.876;2.136;2022-12-24T09:54:25;17.02;;;2.25;;
61085;SDS011;46967;48.876;2.136;2022-12-24T09:56:55;14.50;;;2.38;;
61085;SDS011;46967;48.876;2.136;2022-12-24T09:59:37;9.77;;;2.25;;
61085;SDS011;46967;48.876;2.136;2022-12-24T10:02:08;13.02;;;1.95;;
61085;SDS011;46967;48.876;2.136;2022-12-24T10:04:36;14.48;;;1.85;;
61085;SDS011;46967;48.876;2.136;2022-12-24T10:07:09;14.10;;;2.47;;
61085;SDS011;46967;48.876;2.136;2022-12-24T10:15:50;9.52;;;2.42;;
61085;SDS011;46967;48.876;2.136;2022-12-24T10:18:24;7.07;;;1.42;;
61085;SDS011;46967;48.876;2.136;2022-12-24T10:21:24;12.98;;;1.92;;
61085;SDS011;46967;48.876;2.136;2022-12-24T10:27:00;11.98;;;1.90;;
61085;SDS011;46967;48.876;2.136;2022-12-24T10:29:38;11.45;;;1.77;;
61085;SDS011;46967;48.876;2.136;2022-12-24T10:34:32;15.20;;;1.60;;
61085;SDS011;46967;48.876;2.136;2022-12-24T10:37:02;10.52;;;1.60;;
61085;SDS011;46967;48.876;2.136;2022-12-24T10:39:28;11.95;;;2.03;;
61085;SDS011;46967;48.876;2.136;2022-12-24T10:41:54;13.10;;;1.90;;
61085;SDS011;46967;48.876;2.136;2022-12-24T10:44:24;11.50;;;1.42;;
61085;SDS011;46967;48.876;2.136;2022-12-24T10:46:52;11.57;;;1.80;;
61085;SDS011;46967;48.876;2.136;2022-12-24T10:49:21;14.23;;;1.33;;
61085;SDS011;46967;48.876;2.136;2022-12-24T10:51:56;10.88;;;1.42;;
61085;SDS011;46967;48.876;2.136;2022-12-24T10:54:27;12.85;;;3.38;;
61085;SDS011;46967;48.876;2.136;2022-12-24T10:56:59;9.52;;;1.83;;
61085;SDS011;46967;48.876;2.136;2022-12-24T10:59:27;11.55;;;1.65;;
61085;SDS011;46967;48.876;2.136;2022-12-24T11:01:58;13.52;;;2.03;;
61085;SDS011;46967;48.876;2.136;2022-12-24T11:04:25;10.63;;;1.92;;
61085;SDS011;46967;48.876;2.136;2022-12-24T11:07:09;10.93;;;1.48;;
61085;SDS011;46967;48.876;2.136;2022-12-24T11:09:43;5.60;;;0.98;;
61085;SDS011;46967;48.876;2.136;2022-12-24T11:12:30;9.90;;;2.70;;
61085;SDS011;46967;48.876;2.136;2022-12-24T11:15:05;9.10;;;1.30;;
61085;SDS011;46967;48.876;2.136;2022-12-24T11:17:40;9.82;;;1.90;;
61085;SDS011;46967;48.876;2.136;2022-12-24T11:20:06;11.27;;;1.42;;
61085;SDS011;46967;48.876;2.136;2022-12-24T11:22:41;12.27;;;1.65;;
61085;SDS011;46967;48.876;2.136;2022-12-24T11:25:20;7.47;;;1.30;;
61085;SDS011;46967;48.876;2.136;2022-12-24T11:27:49;10.95;;;1.45;;
61085;SDS011;46967;48.876;2.136;2022-12-24T11:32:51;12.63;;;1.60;;
61085;SDS011;46967;48.876;2.136;2022-12-24T11:35:32;6.57;;;1.48;;
61085;SDS011;46967;48.876;2.136;2022-12-24T11:40:32;11.45;;;1.95;;
61085;SDS011;46967;48.876;2.136;2022-12-24T11:43:00;12.45;;;1.92;;
61085;SDS011;46967;48.876;2.136;2022-12-24T11:45:28;13.93;;;2.00;;
61085;SDS011;46967;48.876;2.136;2022-12-24T11:47:55;7.70;;;1.40;;
61085;SDS011;46967;48.876;2.136;2022-12-24T11:50:29;12.02;;;1.50;;
61085;SDS011;46967;48.876;2.136;2022-12-24T11:52:58;10.65;;;1.77;;
61085;SDS011;46967;48.876;2.136;2022-12-24T12:01:17;9.43;;;1.77;;
61085;SDS011;46967;48.876;2.136;2022-12-24T12:06:46;14.52;;;1.40;;
61085;SDS011;46967;48.876;2.136;2022-12-24T12:09:25;11.73;;;1.90;;
61085;SDS011;46967;48.876;2.136;2022-12-24T12:12:30;14.13;;;2.00;;
61085;SDS011;46967;48.876;2.136;2022-12-24T12:15:10;12.63;;;1.85;;
61085;SDS011;46967;48.876;2.136;2022-12-24T12:20:12;10.02;;;1.67;;
61085;SDS011;46967;48.876;2.136;2022-12-24T12:25:35;7.38;;;1.55;;
61085;SDS011;46967;48.876;2.136;2022-12-24T12:28:14;9.70;;;1.70;;
61085;SDS011;46967;48.876;2.136;2022-12-24T12:31:33;14.10;;;1.70;;
61085;SDS011;46967;48.876;2.136;2022-12-24T12:34:08;10.25;;;2.03;;
61085;SDS011;46967;48.876;2.136;2022-12-24T12:36:43;13.63;;;2.20;;
61085;SDS011;46967;48.876;2.136;2022-12-24T12:39:13;17.75;;;2.33;;
61085;SDS011;46967;48.876;2.136;2022-12-24T12:45:14;9.55;;;1.90;;
61085;SDS011;46967;48.876;2.136;2022-12-24T13:00:52;7.32;;;1.52;;
61085;SDS011;46967;48.876;2.136;2022-12-24T13:03:42;14.18;;;2.13;;
61085;SDS011;46967;48.876;2.136;2022-12-24T13:06:25;11.65;;;2.58;;
61085;SDS011;46967;48.876;2.136;2022-12-24T13:11:45;9.75;;;1.67;;
61085;SDS011;46967;48.876;2.136;2022-12-24T13:22:25;13.00;;;2.25;;
61085;SDS011;46967;48.876;2.136;2022-12-24T13:24:51;14.65;;;1.98;;
61085;SDS011;46967;48.876;2.136;2022-12-24T13:27:28;9.52;;;1.60;;
61085;SDS011;46967;48.876;2.136;2022-12-24T13:32:46;5.97;;;1.48;;
61085;SDS011;46967;48.876;2.136;2022-12-24T13:37:43;10.95;;;1.92;;
61085;SDS011;46967;48.876;2.136;2022-12-24T13:55:59;8.93;;;1.45;;
61085;SDS011;46967;48.876;2.136;2022-12-24T13:58:31;7.40;;;1.63;;
61085;SDS011;46967;48.876;2.136;2022-12-24T14:01:02;8.63;;;1.35;;
61085;SDS011;46967;48.876;2.136;2022-12-24T14:06:21;16.67;;;2.28;;
61085;SDS011;46967;48.876;2.136;2022-12-24T14:08:49;11.05;;;2.80;;
61085;SDS011;46967;48.876;2.136;2022-12-24T14:11:19;14.65;;;2.10;;
61085;SDS011;46967;48.876;2.136;2022-12-24T14:16:23;10.70;;;3.42;;
61085;SDS011;46967;48.876;2.136;2022-12-24T14:19:02;11.38;;;2.10;;
61085;SDS011;46967;48.876;2.136;2022-12-24T14:21:35;7.80;;;2.47;;
61085;SDS011;46967;48.876;2.136;2022-12-24T14:24:11;8.13;;;2.40;;
61085;SDS011;46967;48.876;2.136;2022-12-24T14:26:44;8.95;;;2.05;;
61085;SDS011;46967;48.876;2.136;2022-12-24T14:31:56;11.25;;;2.60;;
61085;SDS011;46967;48.876;2.136;2022-12-24T14:34:23;13.40;;;2.08;;
61085;SDS011;46967;48.876;2.136;2022-12-24T14:36:50;6.43;;;1.35;;
61085;SDS011;46967;48.876;2.136;2022-12-24T14:39:34;6.90;;;2.47;;
61085;SDS011;46967;48.876;2.136;2022-12-24T14:53:00;8.23;;;2.00;;
61085;SDS011;46967;48.876;2.136;2022-12-24T14:55:39;7.50;;;1.50;;
61085;SDS011;46967;48.876;2.136;2022-12-24T14:58:22;8.70;;;2.45;;
61085;SDS011;46967;48.876;2.136;2022-12-24T15:00:52;8.07;;;1.80;;
61085;SDS011;46967;48.876;2.136;2022-12-24T15:03:20;9.73;;;2.27;;
61085;SDS011;46967;48.876;2.136;2022-12-24T15:05:52;10.82;;;2.60;;
61085;SDS011;46967;48.876;2.136;2022-12-24T15:08:30;9.45;;;2.05;;
61085;SDS011;46967;48.876;2.136;2022-12-24T15:10:59;8.98;;;2.03;;
61085;SDS011;46967;48.876;2.136;2022-12-24T15:13:39;7.60;;;1.88;;
61085;SDS011;46967;48.876;2.136;2022-12-24T15:16:09;10.25;;;1.75;;
61085;SDS011;46967;48.876;2.136;2022-12-24T15:18:37;8.75;;;1.83;;
61085;SDS011;46967;48.876;2.136;2022-12-24T15:21:12;10.27;;;2.60;;
61085;SDS011;46967;48.876;2.136;2022-12-24T15:23:44;10.68;;;2.50;;
61085;SDS011;46967;48.876;2.136;2022-12-24T15:26:17;9.05;;;2.20;;
61085;SDS011;46967;48.876;2.136;2022-12-24T15:28:50;11.57;;;2.75;;
61085;SDS011;46967;48.876;2.136;2022-12-24T15:31:17;6.88;;;2.13;;
61085;SDS011;46967;48.876;2.136;2022-12-24T15:33:45;9.40;;;2.65;;
61085;SDS011;46967;48.876;2.136;2022-12-24T15:36:12;11.60;;;2.20;;
61085;SDS011;46967;48.876;2.136;2022-12-24T15:38:43;11.45;;;2.55;;
61085;SDS011;46967;48.876;2.136;2022-12-24T15:43:42;9.98;;;2.22;;
61085;SDS011;46967;48.876;2.136;2022-12-24T15:46:16;7.00;;;1.73;;
61085;SDS011;46967;48.876;2.136;2022-12-24T15:48:46;10.88;;;2.33;;
61085;SDS011;46967;48.876;2.136;2022-12-24T15:51:19;13.93;;;2.25;;
61085;SDS011;46967;48.876;2.136;2022-12-24T15:53:46;7.38;;;2.15;;
61085;SDS011;46967;48.876;2.136;2022-12-24T15:56:26;7.03;;;2.20;;
61085;SDS011;46967;48.876;2.136;2022-12-24T16:01:42;10.32;;;2.78;;
61085;SDS011;46967;48.876;2.136;2022-12-24T16:04:12;12.43;;;3.10;;
61085;SDS011;46967;48.876;2.136;2022-12-24T16:06:56;10.25;;;2.55;;
61085;SDS011;46967;48.876;2.136;2022-12-24T16:11:59;9.30;;;2.78;;
61085;SDS011;46967;48.876;2.136;2022-12-24T16:14:26;8.88;;;2.28;;
61085;SDS011;46967;48.876;2.136;2022-12-24T16:16:52;8.80;;;2.70;;
61085;SDS011;46967;48.876;2.136;2022-12-24T16:19:22;10.48;;;2.38;;
61085;SDS011;46967;48.876;2.136;2022-12-24T16:21:51;10.30;;;2.75;;
61085;SDS011;46967;48.876;2.136;2022-12-24T16:26:59;13.00;;;3.00;;
61085;SDS011;46967;48.876;2.136;2022-12-24T16:29:25;9.50;;;2.60;;
61085;SDS011;46967;48.876;2.136;2022-12-24T16:31:52;9.32;;;2.60;;
61085;SDS011;46967;48.876;2.136;2022-12-24T16:34:23;9.73;;;3.13;;
61085;SDS011;46967;48.876;2.136;2022-12-24T16:36:49;7.88;;;2.63;;
61085;SDS011;46967;48.876;2.136;2022-12-24T16:39:16;9.23;;;3.13;;
61085;SDS011;46967;48.876;2.136;2022-12-24T16:41:48;9.68;;;2.67;;
61085;SDS011;46967;48.876;2.136;2022-12-24T16:44:35;9.48;;;2.95;;
61085;SDS011;46967;48.876;2.136;2022-12-24T16:47:01;8.38;;;2.35;;
61085;SDS011;46967;48.876;2.136;2022-12-24T16:49:28;14.30;;;3.05;;
61085;SDS011;46967;48.876;2.136;2022-12-24T16:51:54;12.80;;;3.50;;
61085;SDS011;46967;48.876;2.136;2022-12-24T16:54:20;10.85;;;2.97;;
61085;SDS011;46967;48.876;2.136;2022-12-24T16:56:45;10.82;;;3.20;;
61085;SDS011;46967;48.876;2.136;2022-12-24T16:59:15;16.05;;;4.78;;
61085;SDS011;46967;48.876;2.136;2022-12-24T17:01:42;8.02;;;3.45;;
61085;SDS011;46967;48.876;2.136;2022-12-24T17:04:07;11.20;;;4.55;;
61085;SDS011;46967;48.876;2.136;2022-12-24T17:06:33;13.73;;;3.60;;
61085;SDS011;46967;48.876;2.136;2022-12-24T17:08:58;13.45;;;4.53;;